createdAt,value
2022-09-26T00:01:35.888Z,99.90
2022-09-26T00:04:09.165Z,99.90
2022-09-26T00:06:38.070Z,99.90
2022-09-26T00:09:06.162Z,99.90
2022-09-26T00:11:35.562Z,99.90
2022-09-26T00:14:06.684Z,99.90
2022-09-26T00:16:35.257Z,99.90
2022-09-26T00:19:05.076Z,99.90
2022-09-26T00:21:34.221Z,99.90
2022-09-26T00:24:03.409Z,99.90
2022-09-26T00:26:32.992Z,99.90
2022-09-26T00:29:04.489Z,99.90
2022-09-26T00:31:33.623Z,99.90
2022-09-26T00:34:02.099Z,99.90
2022-09-26T00:36:37.959Z,99.90
2022-09-26T00:39:09.102Z,99.90
2022-09-26T00:41:38.174Z,99.90
2022-09-26T00:44:38.456Z,99.90
2022-09-26T00:47:08.435Z,99.90
2022-09-26T00:49:39.216Z,99.90
2022-09-26T00:52:12.677Z,99.90
2022-09-26T00:54:45.767Z,99.90
2022-09-26T00:57:16.818Z,99.90
2022-09-26T00:59:48.388Z,99.90
2022-09-26T01:02:17.113Z,99.90
2022-09-26T01:04:46.642Z,99.90
2022-09-26T01:07:20.142Z,99.90
2022-09-26T01:09:49.249Z,99.90
2022-09-26T01:12:17.866Z,99.90
2022-09-26T01:14:47.523Z,99.90
2022-09-26T01:17:16.609Z,99.90
2022-09-26T01:19:55.318Z,99.90
2022-09-26T01:22:58.905Z,99.90
2022-09-26T01:25:45.318Z,99.90
2022-09-26T01:28:35.745Z,99.90
2022-09-26T01:31:13.711Z,99.90
2022-09-26T01:33:51.262Z,99.90
2022-09-26T01:36:48.969Z,99.90
2022-09-26T01:39:42.677Z,99.90
2022-09-26T01:42:19.154Z,99.90
2022-09-26T01:44:55.696Z,99.90
2022-09-26T01:47:28.810Z,99.90
2022-09-26T01:50:02.209Z,99.90
2022-09-26T01:52:36.986Z,99.90
2022-09-26T01:55:10.624Z,99.90
2022-09-26T01:57:42.374Z,99.90
2022-09-26T02:00:12.858Z,99.90
2022-09-26T02:02:44.934Z,99.90
2022-09-26T02:05:20.836Z,99.90
2022-09-26T02:07:56.419Z,99.90
2022-09-26T02:10:29.806Z,99.90
2022-09-26T02:13:03.983Z,99.90
2022-09-26T02:15:34.963Z,99.90
2022-09-26T02:18:10.831Z,99.90
2022-09-26T02:20:40.541Z,99.90
2022-09-26T02:23:08.899Z,99.90
2022-09-26T02:25:37.554Z,99.90
2022-09-26T02:28:06.248Z,99.90
2022-09-26T02:30:34.425Z,99.90
2022-09-26T02:33:04.313Z,99.90
2022-09-26T02:35:49.545Z,99.90
2022-09-26T02:38:18.082Z,99.90
2022-09-26T02:40:55.148Z,99.90
2022-09-26T02:43:42.862Z,99.90
2022-09-26T02:46:40.784Z,99.90
2022-09-26T02:49:25.356Z,99.90
2022-09-26T02:52:14.048Z,99.90
2022-09-26T02:54:49.694Z,99.90
2022-09-26T02:57:27.792Z,99.90
2022-09-26T02:59:59.735Z,99.90
2022-09-26T03:02:34.065Z,99.90
2022-09-26T03:05:12.041Z,99.90
2022-09-26T03:07:45.574Z,99.90
2022-09-26T03:10:15.338Z,99.90
2022-09-26T03:12:45.721Z,99.90
2022-09-26T03:15:15.393Z,99.90
2022-09-26T03:17:55.266Z,99.90
2022-09-26T03:20:26.082Z,99.90
2022-09-26T03:22:54.353Z,99.90
2022-09-26T03:25:25.722Z,99.90
2022-09-26T03:27:55.005Z,99.90
2022-09-26T03:30:24.486Z,99.90
2022-09-26T03:32:52.479Z,99.90
2022-09-26T03:35:20.833Z,99.90
2022-09-26T03:37:50.688Z,99.90
2022-09-26T03:40:18.828Z,99.90
2022-09-26T03:42:48.001Z,99.90
2022-09-26T03:45:16.163Z,99.90
2022-09-26T03:47:44.187Z,99.90
2022-09-26T03:50:12.647Z,99.90
2022-09-26T03:52:40.647Z,99.90
2022-09-26T03:55:11.317Z,99.90
2022-09-26T03:57:39.342Z,99.90
2022-09-26T04:00:08.255Z,99.90
2022-09-26T04:02:36.533Z,99.90
2022-09-26T04:05:05.409Z,99.90
2022-09-26T04:07:33.403Z,99.90
2022-09-26T04:10:01.442Z,99.90
2022-09-26T04:12:30.853Z,99.90
2022-09-26T04:14:58.876Z,99.90
2022-09-26T04:17:26.982Z,99.90
2022-09-26T04:19:54.974Z,99.90
2022-09-26T04:22:22.988Z,99.90
2022-09-26T04:24:51.585Z,99.90
2022-09-26T04:27:19.701Z,99.90
2022-09-26T04:29:49.082Z,99.90
2022-09-26T04:32:17.211Z,99.90
2022-09-26T04:34:45.223Z,99.90
2022-09-26T04:37:13.322Z,99.90
2022-09-26T04:39:42.014Z,99.90
2022-09-26T04:42:10.021Z,99.90
2022-09-26T04:44:37.997Z,99.90
2022-09-26T04:47:07.433Z,99.90
2022-09-26T04:49:35.420Z,99.90
2022-09-26T04:52:03.450Z,99.90
2022-09-26T04:54:31.477Z,99.90
2022-09-26T04:57:01.473Z,99.90
2022-09-26T04:59:29.498Z,99.90
2022-09-26T05:01:57.842Z,99.90
2022-09-26T05:04:27.917Z,99.90
2022-09-26T05:06:57.937Z,99.90
2022-09-26T05:09:26.165Z,99.90
2022-09-26T05:11:54.196Z,99.90
2022-09-26T05:14:25.454Z,99.90
2022-09-26T05:16:53.493Z,99.90
2022-09-26T05:19:21.504Z,99.90
2022-09-26T05:21:50.866Z,99.90
2022-09-26T05:24:36.293Z,99.90
2022-09-26T05:27:06.785Z,99.90
2022-09-26T05:29:34.912Z,99.90
2022-09-26T05:32:03.237Z,99.90
2022-09-26T05:34:31.229Z,99.90
2022-09-26T05:37:01.857Z,99.90
2022-09-26T05:39:47.528Z,99.90
2022-09-26T05:42:21.648Z,99.90
2022-09-26T05:44:49.699Z,99.90
2022-09-26T05:47:18.380Z,99.90
2022-09-26T05:49:46.387Z,99.90
2022-09-26T05:52:16.008Z,99.90
2022-09-26T05:54:43.986Z,99.90
2022-09-26T05:57:12.896Z,99.90
2022-09-26T05:59:40.903Z,99.90
2022-09-26T06:02:09.370Z,99.90
2022-09-26T06:04:37.762Z,99.90
2022-09-26T06:07:05.778Z,99.90
2022-09-26T06:09:35.249Z,99.90
2022-09-26T06:12:03.490Z,99.90
2022-09-26T06:14:32.088Z,99.90
2022-09-26T06:17:00.079Z,99.90
2022-09-26T06:19:28.063Z,99.90
2022-09-26T06:21:56.038Z,99.90
2022-09-26T06:24:24.037Z,99.90
2022-09-26T06:26:53.556Z,99.90
2022-09-26T06:29:21.547Z,99.90
2022-09-26T06:31:50.426Z,99.90
2022-09-26T06:34:18.518Z,99.90
2022-09-26T06:36:46.875Z,99.90
2022-09-26T06:39:15.036Z,99.90
2022-09-26T06:41:43.235Z,99.90
2022-09-26T06:44:12.723Z,99.90
2022-09-26T06:46:40.817Z,99.90
2022-09-26T06:49:08.904Z,99.90
2022-09-26T06:51:38.035Z,99.90
2022-09-26T06:54:06.044Z,99.90
2022-09-26T06:56:34.074Z,99.90
2022-09-26T06:59:02.422Z,99.90
2022-09-26T07:01:31.942Z,99.90
2022-09-26T07:04:00.023Z,99.90
2022-09-26T07:06:28.006Z,99.90
2022-09-26T07:09:02.656Z,99.90
2022-09-26T07:11:50.631Z,99.90
2022-09-26T07:14:21.594Z,99.90
2022-09-26T07:16:52.039Z,99.90
2022-09-26T07:19:21.279Z,99.90
2022-09-26T07:21:49.304Z,99.90
2022-09-26T07:24:17.718Z,99.90
2022-09-26T07:26:45.739Z,99.90
2022-09-26T07:29:13.957Z,99.90
2022-09-26T07:31:48.769Z,99.90
2022-09-26T07:34:18.848Z,99.90
2022-09-26T07:36:47.736Z,99.90
2022-09-26T07:39:16.092Z,99.90
2022-09-26T07:41:45.973Z,99.90
2022-09-26T07:47:22.187Z,99.90
2022-09-26T07:50:08.831Z,99.90
2022-09-26T07:52:37.245Z,99.90
2022-09-26T07:55:05.687Z,99.90
2022-09-26T07:57:35.465Z,99.90
2022-09-26T08:00:05.910Z,99.90
2022-09-26T08:02:34.104Z,99.90
2022-09-26T08:05:06.588Z,99.90
2022-09-26T08:07:35.390Z,99.90
2022-09-26T08:10:04.128Z,99.90
2022-09-26T08:12:36.468Z,99.90
2022-09-26T08:15:07.013Z,99.90
2022-09-26T08:17:35.410Z,99.90
2022-09-26T08:20:05.652Z,99.90
2022-09-26T08:22:33.947Z,99.90
2022-09-26T08:25:01.957Z,99.90
2022-09-26T08:27:33.514Z,99.90
2022-09-26T08:30:02.699Z,99.90
2022-09-26T08:32:32.333Z,99.90
2022-09-26T08:35:00.428Z,99.90
2022-09-26T08:37:31.035Z,99.90
2022-09-26T08:40:00.664Z,99.90
2022-09-26T08:42:39.460Z,99.90
2022-09-26T08:45:47.565Z,99.90
2022-09-26T08:48:33.079Z,99.90
2022-09-26T08:51:07.529Z,99.90
2022-09-26T08:53:44.056Z,99.90
2022-09-26T08:56:19.803Z,99.90
2022-09-26T08:58:52.225Z,99.90
2022-09-26T09:01:26.943Z,99.90
2022-09-26T09:04:02.124Z,99.90
2022-09-26T09:06:30.592Z,99.90
2022-09-26T09:09:00.154Z,99.90
2022-09-26T09:11:51.035Z,99.90
2022-09-26T09:14:36.609Z,99.90
2022-09-26T09:17:14.005Z,99.90
2022-09-26T09:19:52.665Z,99.90
2022-09-26T09:22:38.408Z,99.90
2022-09-26T09:25:16.688Z,99.90
2022-09-26T09:28:03.961Z,99.90
2022-09-26T09:30:41.972Z,99.90
2022-09-26T09:33:15.670Z,99.90
2022-09-26T09:35:47.277Z,99.90
2022-09-26T09:38:18.929Z,99.90
2022-09-26T09:40:55.481Z,99.90
2022-09-26T09:43:29.833Z,99.90
2022-09-26T09:46:04.172Z,99.90
2022-09-26T09:48:32.523Z,99.90
2022-09-26T09:51:13.141Z,99.90
2022-09-26T09:53:56.925Z,99.90
2022-09-26T09:56:33.991Z,99.90
2022-09-26T09:59:17.361Z,99.90
2022-09-26T10:01:51.122Z,99.90
2022-09-26T10:04:31.660Z,99.90
2022-09-26T10:07:01.797Z,99.90
2022-09-26T10:09:35.431Z,99.90
2022-09-26T10:12:16.668Z,99.90
2022-09-26T10:14:50.451Z,99.90
2022-09-26T10:17:22.980Z,99.90
2022-09-26T10:19:51.819Z,99.90
2022-09-26T10:22:26.241Z,99.90
2022-09-26T10:25:00.863Z,99.90
2022-09-26T10:27:37.689Z,99.90
2022-09-26T10:30:21.164Z,99.90
2022-09-26T10:32:56.084Z,99.90
2022-09-26T10:35:26.120Z,99.90
2022-09-26T10:38:03.874Z,99.90
2022-09-26T10:40:46.174Z,99.90
2022-09-26T10:43:28.643Z,99.90
2022-09-26T10:46:02.258Z,99.90
2022-09-26T10:48:47.951Z,99.90
2022-09-26T10:51:22.178Z,99.90
2022-09-26T10:53:53.119Z,99.90
2022-09-26T10:56:27.403Z,99.90
2022-09-26T10:58:59.628Z,99.90
2022-09-26T11:01:31.295Z,99.90
2022-09-26T11:04:12.549Z,99.90
2022-09-26T11:06:44.042Z,99.90
2022-09-26T11:09:13.992Z,99.90
2022-09-26T11:11:43.126Z,99.90
2022-09-26T11:14:28.291Z,99.90
2022-09-26T11:16:59.176Z,99.90
2022-09-26T11:19:36.032Z,99.90
2022-09-26T11:22:11.473Z,99.90
2022-09-26T11:24:48.095Z,99.90
2022-09-26T11:27:31.369Z,99.90
2022-09-26T11:30:09.105Z,99.90
2022-09-26T11:32:40.993Z,99.90
2022-09-26T11:35:15.769Z,99.90
2022-09-26T11:38:06.542Z,99.90
2022-09-26T11:41:00.125Z,99.90
2022-09-26T11:43:46.409Z,99.90
2022-09-26T11:46:33.048Z,99.90
2022-09-26T11:49:19.583Z,97.10
2022-09-26T11:52:02.680Z,96.70
2022-09-26T11:54:51.309Z,97.70
2022-09-26T11:57:35.550Z,97.40
2022-09-26T12:00:09.155Z,96.90
2022-09-26T12:02:54.318Z,95.60
2022-09-26T12:05:30.274Z,94.60
2022-09-26T12:08:11.298Z,92.70
2022-09-26T12:10:50.918Z,91.80
2022-09-26T12:13:32.643Z,88.40
2022-09-26T12:16:12.223Z,87.00
2022-09-26T12:18:53.826Z,78.80
2022-09-26T12:21:31.302Z,73.60
2022-09-26T12:24:06.978Z,77.10
2022-09-26T12:26:44.198Z,65.60
2022-09-26T12:29:25.740Z,61.50
2022-09-26T12:32:10.089Z,63.40
2022-09-26T12:35:02.151Z,59.30
2022-09-26T12:38:05.118Z,63.30
2022-09-26T12:40:37.312Z,61.00
2022-09-26T12:43:31.589Z,62.20
2022-09-26T12:46:18.913Z,65.60
2022-09-26T12:49:06.765Z,69.30
2022-09-26T12:51:43.970Z,69.40
2022-09-26T12:54:26.743Z,70.90
2022-09-26T12:57:04.337Z,69.60
2022-09-26T12:59:55.839Z,68.70
2022-09-26T13:02:51.348Z,67.30
2022-09-26T13:05:46.900Z,70.50
2022-09-26T13:08:24.883Z,61.80
2022-09-26T13:11:04.663Z,64.30
2022-09-26T13:14:06.080Z,39.90
2022-09-26T13:16:42.751Z,52.50
2022-09-26T13:19:23.596Z,48.90
2022-09-26T13:21:59.989Z,50.30
2022-09-26T13:24:35.708Z,48.80
2022-09-26T13:27:12.575Z,55.20
2022-09-26T13:29:44.554Z,50.60
2022-09-26T13:32:20.407Z,55.40
2022-09-26T13:34:54.318Z,60.10
2022-09-26T13:37:37.611Z,62.80
2022-09-26T13:40:26.726Z,60.40
2022-09-26T13:43:05.946Z,51.70
2022-09-26T13:45:49.024Z,52.10
2022-09-26T13:48:24.199Z,56.40
2022-09-26T13:50:55.860Z,59.60
2022-09-26T13:53:28.943Z,63.60
2022-09-26T13:56:42.386Z,67.30
2022-09-26T13:59:26.150Z,69.10
2022-09-26T14:02:22.211Z,72.00
2022-09-26T14:04:51.150Z,64.60
2022-09-26T14:07:38.896Z,65.60
2022-09-26T14:10:36.193Z,68.20
2022-09-26T14:13:19.033Z,67.40
2022-09-26T14:16:05.479Z,72.50
2022-09-26T14:18:59.424Z,74.70
2022-09-26T14:21:42.072Z,75.90
2022-09-26T14:24:30.647Z,79.80
2022-09-26T14:27:05.013Z,79.50
2022-09-26T14:29:47.533Z,79.10
2022-09-26T14:32:20.705Z,78.60
2022-09-26T14:34:54.967Z,79.40
2022-09-26T14:37:41.849Z,82.20
2022-09-26T14:40:22.996Z,80.50
2022-09-26T14:42:53.963Z,82.70
2022-09-26T14:45:26.656Z,84.90
2022-09-26T14:48:04.567Z,84.40
2022-09-26T14:50:35.512Z,84.50
2022-09-26T14:53:14.832Z,83.80
2022-09-26T14:55:59.396Z,75.00
2022-09-26T14:58:46.505Z,79.00
2022-09-26T15:01:20.567Z,82.10
2022-09-26T15:03:56.456Z,80.10
2022-09-26T15:06:27.209Z,82.10
2022-09-26T15:08:56.175Z,85.10
2022-09-26T15:11:34.750Z,85.30
2022-09-26T15:14:14.871Z,82.60
2022-09-26T15:16:48.320Z,86.30
2022-09-26T15:19:20.137Z,85.50
2022-09-26T15:21:55.646Z,87.90
2022-09-26T15:24:27.462Z,88.80
2022-09-26T15:26:58.302Z,90.10
2022-09-26T15:29:26.693Z,90.50
2022-09-26T15:31:57.662Z,91.00
2022-09-26T15:34:33.669Z,90.90
2022-09-26T15:37:09.287Z,91.30
2022-09-26T15:39:41.793Z,91.40
2022-09-26T15:42:42.448Z,91.90
2022-09-26T15:45:30.178Z,92.50
2022-09-26T15:48:01.881Z,92.80
2022-09-26T15:50:39.226Z,93.30
2022-09-26T15:53:12.861Z,93.90
2022-09-26T15:55:49.508Z,93.90
2022-09-26T15:58:21.262Z,94.60
2022-09-26T16:00:51.999Z,95.70
2022-09-26T16:03:39.857Z,96.00
2022-09-26T16:06:16.613Z,96.80
2022-09-26T16:08:45.470Z,97.20
2022-09-26T16:11:13.682Z,96.70
2022-09-26T16:13:46.388Z,96.60
2022-09-26T16:16:18.671Z,96.70
2022-09-26T16:18:54.250Z,96.90
2022-09-26T16:21:25.689Z,97.30
2022-09-26T16:23:55.771Z,97.70
2022-09-26T16:26:30.268Z,98.00
2022-09-26T16:28:59.878Z,97.80
2022-09-26T16:31:39.682Z,98.30
2022-09-26T16:34:22.210Z,98.50
2022-09-26T16:36:51.398Z,98.80
2022-09-26T16:39:43.904Z,99.10
2022-09-26T16:42:17.971Z,99.50
2022-09-26T16:44:54.782Z,99.90
2022-09-26T16:47:34.393Z,99.90
2022-09-26T16:50:19.562Z,99.90
2022-09-26T16:52:47.563Z,99.90
2022-09-26T16:55:15.749Z,99.90
2022-09-26T16:57:52.377Z,99.90
2022-09-26T17:00:40.112Z,99.90
2022-09-26T17:03:22.065Z,99.90
2022-09-26T17:05:53.027Z,99.90
2022-09-26T17:08:22.353Z,99.90
2022-09-26T17:10:52.822Z,99.90
2022-09-26T17:13:23.195Z,99.90
2022-09-26T17:15:54.639Z,99.90
2022-09-26T17:18:28.906Z,99.90
2022-09-26T17:20:59.946Z,99.90
2022-09-26T17:23:39.976Z,99.90
2022-09-26T17:26:09.057Z,99.90
2022-09-26T17:28:40.063Z,99.90
2022-09-26T17:31:15.022Z,99.90
2022-09-26T17:33:43.458Z,99.90
2022-09-26T17:36:20.876Z,99.90
2022-09-26T17:38:48.893Z,99.90
2022-09-26T17:41:16.998Z,99.90
2022-09-26T17:43:47.416Z,99.90
2022-09-26T17:46:16.784Z,99.90
2022-09-26T17:48:45.713Z,99.90
2022-09-26T17:51:16.107Z,99.90
2022-09-26T17:53:51.100Z,99.90
2022-09-26T17:56:19.988Z,99.90
2022-09-26T17:58:49.412Z,99.90
2022-09-26T18:01:23.442Z,99.90
2022-09-26T18:03:54.609Z,99.90
2022-09-26T18:06:27.789Z,99.90
2022-09-26T18:08:59.781Z,99.90
2022-09-26T18:11:31.706Z,99.90
2022-09-26T18:14:00.028Z,99.90
2022-09-26T18:16:30.141Z,99.90
2022-09-26T18:18:59.499Z,99.90
2022-09-26T18:21:30.482Z,99.90
2022-09-26T18:24:02.197Z,99.90
2022-09-26T18:26:32.740Z,99.90
2022-09-26T18:29:08.180Z,99.90
2022-09-26T18:31:41.059Z,99.90
2022-09-26T18:34:16.358Z,99.90
2022-09-26T18:36:47.242Z,99.90
2022-09-26T18:39:15.410Z,99.90
2022-09-26T18:41:45.503Z,99.90
2022-09-26T18:44:18.471Z,99.90
2022-09-26T18:46:48.373Z,99.90
2022-09-26T18:49:17.305Z,99.90
2022-09-26T18:51:54.704Z,99.90
2022-09-26T18:54:27.302Z,99.90
2022-09-26T18:57:12.652Z,99.90
2022-09-26T18:59:40.711Z,99.90
2022-09-26T19:02:20.436Z,99.90
2022-09-26T19:04:50.426Z,99.90
2022-09-26T19:07:21.604Z,99.90
2022-09-26T19:09:50.655Z,99.90
2022-09-26T19:12:18.975Z,99.90
2022-09-26T19:14:46.997Z,99.90
2022-09-26T19:17:15.051Z,99.90
2022-09-26T19:19:43.087Z,99.90
2022-09-26T19:22:15.749Z,99.90
2022-09-26T19:24:47.738Z,99.90
2022-09-26T19:27:19.346Z,99.90
2022-09-26T19:29:53.281Z,99.90
2022-09-26T19:32:24.364Z,99.90
2022-09-26T19:34:56.175Z,99.90
2022-09-26T19:37:26.942Z,99.90
2022-09-26T19:39:59.740Z,99.90
2022-09-26T19:42:27.871Z,99.90
2022-09-26T19:44:56.398Z,99.90
2022-09-26T19:47:26.778Z,99.90
2022-09-26T19:49:55.577Z,99.90
2022-09-26T19:52:24.468Z,99.90
2022-09-26T19:54:53.511Z,99.90
2022-09-26T19:57:24.342Z,99.90
2022-09-26T19:59:52.668Z,99.90
2022-09-26T20:02:24.088Z,99.90
2022-09-26T20:04:52.495Z,99.90
2022-09-26T20:07:21.284Z,99.90
2022-09-26T20:09:49.686Z,99.90
2022-09-26T20:12:17.708Z,99.90
2022-09-26T20:14:47.113Z,99.90
2022-09-26T20:17:23.746Z,99.90
2022-09-26T20:19:56.403Z,99.90
2022-09-26T20:22:26.687Z,99.90
2022-09-26T20:24:55.985Z,99.90
2022-09-26T20:27:27.778Z,99.90
2022-09-26T20:30:15.462Z,99.90
2022-09-26T20:32:43.745Z,99.90
2022-09-26T20:35:15.208Z,99.90
2022-09-26T20:37:43.640Z,99.90
2022-09-26T20:40:18.110Z,99.90
2022-09-26T20:42:50.018Z,99.90
2022-09-26T20:45:23.695Z,99.90
2022-09-26T20:47:51.837Z,99.90
2022-09-26T20:50:21.894Z,99.90
2022-09-26T20:52:49.861Z,99.90
2022-09-26T20:55:18.887Z,99.90
2022-09-26T20:57:47.933Z,99.90
2022-09-26T21:00:16.805Z,99.90
2022-09-26T21:02:47.845Z,99.90
2022-09-26T21:05:17.968Z,99.90
2022-09-26T21:07:46.263Z,99.90
2022-09-26T21:10:25.813Z,99.90
2022-09-26T21:12:54.260Z,99.90
2022-09-26T21:15:23.823Z,99.90
2022-09-26T21:17:55.113Z,99.90
2022-09-26T21:20:26.089Z,99.90
2022-09-26T21:22:54.943Z,99.90
2022-09-26T21:25:24.594Z,99.90
2022-09-26T21:27:58.365Z,99.90
2022-09-26T21:30:26.758Z,99.90
2022-09-26T21:32:58.076Z,99.90
2022-09-26T21:35:30.467Z,99.90
2022-09-26T21:37:59.839Z,99.90
2022-09-26T21:40:32.514Z,99.90
2022-09-26T21:43:05.704Z,99.90
2022-09-26T21:45:34.603Z,99.90
2022-09-26T21:48:04.130Z,99.90
2022-09-26T21:50:32.261Z,99.90
2022-09-26T21:53:04.334Z,99.90
2022-09-26T21:55:36.455Z,99.90
2022-09-26T21:58:09.187Z,99.90
2022-09-26T22:00:37.227Z,99.90
2022-09-26T22:03:06.993Z,99.90
2022-09-26T22:05:35.100Z,99.90
2022-09-26T22:08:03.396Z,99.90
2022-09-26T22:10:31.418Z,99.90
2022-09-26T22:12:59.662Z,99.90
2022-09-26T22:15:27.669Z,99.90
2022-09-26T22:17:55.824Z,99.90
2022-09-26T22:20:25.241Z,99.90
2022-09-26T22:22:53.249Z,99.90
2022-09-26T22:25:21.322Z,99.90
2022-09-26T22:27:49.346Z,99.90
2022-09-26T22:30:17.575Z,99.90
2022-09-26T22:32:45.546Z,99.90
2022-09-26T22:35:13.574Z,99.90
2022-09-26T22:37:45.829Z,99.90
2022-09-26T22:40:13.835Z,99.90
2022-09-26T22:42:41.890Z,99.90
2022-09-26T22:45:11.046Z,99.90
2022-09-26T22:47:39.347Z,99.90
2022-09-26T22:50:07.790Z,99.90
2022-09-26T22:52:35.799Z,99.90
2022-09-26T22:55:05.896Z,99.90
2022-09-26T22:57:33.895Z,99.90
2022-09-26T23:00:02.709Z,99.90
2022-09-26T23:02:30.810Z,99.90
2022-09-26T23:04:58.820Z,99.90
2022-09-26T23:07:26.941Z,99.90
2022-09-26T23:09:54.936Z,99.90
2022-09-26T23:12:24.341Z,99.90
2022-09-26T23:14:52.320Z,99.90
2022-09-26T23:17:20.306Z,99.90
2022-09-26T23:19:48.286Z,99.90
2022-09-26T23:22:16.283Z,99.90
2022-09-26T23:24:44.249Z,99.90
2022-09-26T23:27:12.265Z,99.90
2022-09-26T23:29:41.672Z,99.90
2022-09-26T23:32:09.703Z,99.90
2022-09-26T23:34:37.692Z,99.90
2022-09-26T23:37:05.709Z,99.90
2022-09-26T23:39:33.661Z,99.90
2022-09-26T23:42:02.634Z,99.90
2022-09-26T23:44:32.248Z,99.90
2022-09-26T23:47:02.614Z,99.90
2022-09-26T23:49:30.782Z,99.90
2022-09-26T23:51:58.776Z,99.90
2022-09-26T23:54:26.757Z,99.90
2022-09-26T23:56:54.775Z,99.90
2022-09-26T23:59:22.981Z,99.90
